sensor_id;sensor_type;location;lat;lon;timestamp;P1;durP1;ratioP1;P2;durP2;ratioP2
62071;SDS011;48031;48.542;13.232;2022-12-29T00:03:54;14.45;;;7.43;;
62071;SDS011;48031;48.542;13.232;2022-12-29T00:07:56;14.80;;;7.70;;
62071;SDS011;48031;48.542;13.232;2022-12-29T00:11:58;13.00;;;7.78;;
62071;SDS011;48031;48.542;13.232;2022-12-29T00:16:00;16.40;;;8.10;;
62071;SDS011;48031;48.542;13.232;2022-12-29T00:20:02;12.63;;;6.88;;
62071;SDS011;48031;48.542;13.232;2022-12-29T00:24:23;16.05;;;8.02;;
62071;SDS011;48031;48.542;13.232;2022-12-29T00:28:28;17.33;;;8.35;;
62071;SDS011;48031;48.542;13.232;2022-12-29T00:32:48;14.00;;;7.93;;
62071;SDS011;48031;48.542;13.232;2022-12-29T00:37:10;13.05;;;7.35;;
62071;SDS011;48031;48.542;13.232;2022-12-29T00:41:12;13.07;;;6.20;;
62071;SDS011;48031;48.542;13.232;2022-12-29T00:45:35;12.90;;;7.05;;
62071;SDS011;48031;48.542;13.232;2022-12-29T00:49:38;13.43;;;6.85;;
62071;SDS011;48031;48.542;13.232;2022-12-29T00:53:40;13.23;;;7.03;;
62071;SDS011;48031;48.542;13.232;2022-12-29T00:57:42;10.60;;;6.45;;
62071;SDS011;48031;48.542;13.232;2022-12-29T01:01:44;8.80;;;5.57;;
62071;SDS011;48031;48.542;13.232;2022-12-29T01:05:46;9.90;;;6.10;;
62071;SDS011;48031;48.542;13.232;2022-12-29T01:09:48;10.07;;;5.80;;
62071;SDS011;48031;48.542;13.232;2022-12-29T01:14:09;10.40;;;5.95;;
62071;SDS011;48031;48.542;13.232;2022-12-29T01:18:11;9.45;;;4.90;;
62071;SDS011;48031;48.542;13.232;2022-12-29T01:22:14;5.88;;;4.22;;
62071;SDS011;48031;48.542;13.232;2022-12-29T01:26:18;10.10;;;5.63;;
62071;SDS011;48031;48.542;13.232;2022-12-29T01:30:20;7.28;;;4.35;;
62071;SDS011;48031;48.542;13.232;2022-12-29T01:34:23;9.02;;;4.70;;
62071;SDS011;48031;48.542;13.232;2022-12-29T01:38:24;5.78;;;4.07;;
62071;SDS011;48031;48.542;13.232;2022-12-29T01:42:26;5.68;;;3.50;;
62071;SDS011;48031;48.542;13.232;2022-12-29T01:50:41;5.88;;;3.80;;
62071;SDS011;48031;48.542;13.232;2022-12-29T01:54:55;7.03;;;4.07;;
62071;SDS011;48031;48.542;13.232;2022-12-29T01:59:01;6.68;;;3.72;;
62071;SDS011;48031;48.542;13.232;2022-12-29T02:03:08;9.70;;;5.63;;
62071;SDS011;48031;48.542;13.232;2022-12-29T02:07:17;8.43;;;5.00;;
62071;SDS011;48031;48.542;13.232;2022-12-29T02:11:20;8.07;;;5.03;;
62071;SDS011;48031;48.542;13.232;2022-12-29T02:15:31;9.95;;;5.13;;
62071;SDS011;48031;48.542;13.232;2022-12-29T02:32:54;9.60;;;5.35;;
62071;SDS011;48031;48.542;13.232;2022-12-29T02:50:07;8.85;;;4.30;;
62071;SDS011;48031;48.542;13.232;2022-12-29T02:54:16;9.15;;;4.68;;
62071;SDS011;48031;48.542;13.232;2022-12-29T02:58:39;8.10;;;5.05;;
62071;SDS011;48031;48.542;13.232;2022-12-29T03:12:32;7.25;;;4.60;;
62071;SDS011;48031;48.542;13.232;2022-12-29T03:20:42;11.10;;;5.97;;
62071;SDS011;48031;48.542;13.232;2022-12-29T03:24:59;8.07;;;4.93;;
62071;SDS011;48031;48.542;13.232;2022-12-29T03:29:19;12.30;;;6.30;;
62071;SDS011;48031;48.542;13.232;2022-12-29T03:33:23;7.55;;;4.90;;
62071;SDS011;48031;48.542;13.232;2022-12-29T03:37:32;11.73;;;6.65;;
62071;SDS011;48031;48.542;13.232;2022-12-29T03:41:42;8.95;;;6.20;;
62071;SDS011;48031;48.542;13.232;2022-12-29T03:45:46;14.95;;;8.80;;
62071;SDS011;48031;48.542;13.232;2022-12-29T03:49:48;11.95;;;6.97;;
62071;SDS011;48031;48.542;13.232;2022-12-29T03:53:51;8.30;;;5.00;;
62071;SDS011;48031;48.542;13.232;2022-12-29T03:57:53;9.05;;;5.97;;
62071;SDS011;48031;48.542;13.232;2022-12-29T04:02:05;10.88;;;6.80;;
62071;SDS011;48031;48.542;13.232;2022-12-29T04:06:07;8.73;;;5.55;;
62071;SDS011;48031;48.542;13.232;2022-12-29T04:10:14;9.27;;;6.05;;
62071;SDS011;48031;48.542;13.232;2022-12-29T04:14:18;10.43;;;6.30;;
62071;SDS011;48031;48.542;13.232;2022-12-29T04:18:20;10.65;;;6.10;;
62071;SDS011;48031;48.542;13.232;2022-12-29T04:22:22;8.70;;;5.00;;
62071;SDS011;48031;48.542;13.232;2022-12-29T04:26:24;10.95;;;5.70;;
62071;SDS011;48031;48.542;13.232;2022-12-29T04:30:49;9.35;;;5.25;;
62071;SDS011;48031;48.542;13.232;2022-12-29T04:34:54;9.20;;;5.63;;
62071;SDS011;48031;48.542;13.232;2022-12-29T04:38:57;7.70;;;4.53;;
62071;SDS011;48031;48.542;13.232;2022-12-29T04:42:59;8.10;;;4.60;;
62071;SDS011;48031;48.542;13.232;2022-12-29T04:47:01;6.38;;;4.15;;
62071;SDS011;48031;48.542;13.232;2022-12-29T04:51:29;8.52;;;4.90;;
62071;SDS011;48031;48.542;13.232;2022-12-29T04:55:31;6.95;;;3.85;;
62071;SDS011;48031;48.542;13.232;2022-12-29T04:59:33;6.63;;;4.65;;
62071;SDS011;48031;48.542;13.232;2022-12-29T05:03:35;7.25;;;4.28;;
62071;SDS011;48031;48.542;13.232;2022-12-29T05:07:38;10.20;;;4.57;;
62071;SDS011;48031;48.542;13.232;2022-12-29T05:11:40;7.03;;;4.60;;
62071;SDS011;48031;48.542;13.232;2022-12-29T05:15:50;5.30;;;3.33;;
62071;SDS011;48031;48.542;13.232;2022-12-29T05:19:56;5.80;;;3.85;;
62071;SDS011;48031;48.542;13.232;2022-12-29T05:23:59;6.65;;;3.70;;
62071;SDS011;48031;48.542;13.232;2022-12-29T05:28:02;7.10;;;4.15;;
62071;SDS011;48031;48.542;13.232;2022-12-29T05:32:20;5.60;;;3.60;;
62071;SDS011;48031;48.542;13.232;2022-12-29T05:36:22;3.28;;;2.47;;
62071;SDS011;48031;48.542;13.232;2022-12-29T05:40:28;4.72;;;3.28;;
62071;SDS011;48031;48.542;13.232;2022-12-29T05:44:34;6.68;;;3.83;;
62071;SDS011;48031;48.542;13.232;2022-12-29T05:48:58;5.38;;;3.45;;
62071;SDS011;48031;48.542;13.232;2022-12-29T05:53:08;6.38;;;4.35;;
62071;SDS011;48031;48.542;13.232;2022-12-29T05:57:11;4.97;;;3.72;;
62071;SDS011;48031;48.542;13.232;2022-12-29T06:01:17;8.48;;;5.30;;
62071;SDS011;48031;48.542;13.232;2022-12-29T06:05:19;8.68;;;5.35;;
62071;SDS011;48031;48.542;13.232;2022-12-29T06:09:21;7.13;;;4.38;;
62071;SDS011;48031;48.542;13.232;2022-12-29T06:13:23;5.25;;;3.65;;
62071;SDS011;48031;48.542;13.232;2022-12-29T06:17:25;6.05;;;4.07;;
62071;SDS011;48031;48.542;13.232;2022-12-29T06:21:28;9.02;;;4.80;;
62071;SDS011;48031;48.542;13.232;2022-12-29T06:25:32;9.95;;;5.53;;
62071;SDS011;48031;48.542;13.232;2022-12-29T06:29:35;9.45;;;5.80;;
62071;SDS011;48031;48.542;13.232;2022-12-29T06:33:38;7.72;;;4.55;;
62071;SDS011;48031;48.542;13.232;2022-12-29T06:37:40;9.27;;;5.07;;
62071;SDS011;48031;48.542;13.232;2022-12-29T06:41:42;8.40;;;5.07;;
62071;SDS011;48031;48.542;13.232;2022-12-29T06:45:56;9.25;;;5.45;;
62071;SDS011;48031;48.542;13.232;2022-12-29T06:49:58;9.30;;;4.50;;
62071;SDS011;48031;48.542;13.232;2022-12-29T06:54:00;6.68;;;4.60;;
62071;SDS011;48031;48.542;13.232;2022-12-29T06:58:02;6.68;;;4.38;;
62071;SDS011;48031;48.542;13.232;2022-12-29T07:02:03;7.75;;;4.68;;
62071;SDS011;48031;48.542;13.232;2022-12-29T07:06:24;7.10;;;4.63;;
62071;SDS011;48031;48.542;13.232;2022-12-29T07:10:26;8.73;;;5.53;;
62071;SDS011;48031;48.542;13.232;2022-12-29T07:14:28;7.40;;;4.47;;
62071;SDS011;48031;48.542;13.232;2022-12-29T07:18:30;7.45;;;4.72;;
62071;SDS011;48031;48.542;13.232;2022-12-29T07:22:32;8.27;;;4.82;;
62071;SDS011;48031;48.542;13.232;2022-12-29T07:26:34;10.93;;;6.45;;
62071;SDS011;48031;48.542;13.232;2022-12-29T07:30:37;11.32;;;6.07;;
62071;SDS011;48031;48.542;13.232;2022-12-29T07:34:40;9.75;;;5.40;;
62071;SDS011;48031;48.542;13.232;2022-12-29T07:38:42;6.78;;;4.00;;
62071;SDS011;48031;48.542;13.232;2022-12-29T07:42:44;5.70;;;3.90;;
62071;SDS011;48031;48.542;13.232;2022-12-29T07:46:47;6.25;;;4.35;;
62071;SDS011;48031;48.542;13.232;2022-12-29T07:50:57;6.75;;;4.10;;
62071;SDS011;48031;48.542;13.232;2022-12-29T07:54:59;5.65;;;3.72;;
62071;SDS011;48031;48.542;13.232;2022-12-29T07:59:01;6.28;;;4.22;;
62071;SDS011;48031;48.542;13.232;2022-12-29T08:03:03;5.07;;;3.25;;
62071;SDS011;48031;48.542;13.232;2022-12-29T08:07:05;5.47;;;3.60;;
62071;SDS011;48031;48.542;13.232;2022-12-29T08:11:07;3.75;;;2.70;;
62071;SDS011;48031;48.542;13.232;2022-12-29T08:15:10;9.48;;;4.93;;
62071;SDS011;48031;48.542;13.232;2022-12-29T08:19:13;6.35;;;4.32;;
62071;SDS011;48031;48.542;13.232;2022-12-29T08:23:15;6.78;;;3.83;;
62071;SDS011;48031;48.542;13.232;2022-12-29T08:27:17;6.32;;;4.45;;
62071;SDS011;48031;48.542;13.232;2022-12-29T08:31:22;7.85;;;4.45;;
62071;SDS011;48031;48.542;13.232;2022-12-29T08:35:24;7.43;;;4.53;;
62071;SDS011;48031;48.542;13.232;2022-12-29T08:39:26;7.00;;;4.35;;
62071;SDS011;48031;48.542;13.232;2022-12-29T08:43:28;7.45;;;4.88;;
62071;SDS011;48031;48.542;13.232;2022-12-29T08:47:31;8.18;;;5.72;;
62071;SDS011;48031;48.542;13.232;2022-12-29T08:51:33;6.18;;;4.00;;
62071;SDS011;48031;48.542;13.232;2022-12-29T08:55:35;9.18;;;5.90;;
62071;SDS011;48031;48.542;13.232;2022-12-29T08:59:37;9.45;;;5.13;;
62071;SDS011;48031;48.542;13.232;2022-12-29T09:03:39;15.82;;;5.60;;
62071;SDS011;48031;48.542;13.232;2022-12-29T09:08:00;8.00;;;4.40;;
62071;SDS011;48031;48.542;13.232;2022-12-29T09:12:02;5.88;;;3.95;;
62071;SDS011;48031;48.542;13.232;2022-12-29T09:16:04;6.47;;;4.20;;
62071;SDS011;48031;48.542;13.232;2022-12-29T09:20:06;7.20;;;4.93;;
62071;SDS011;48031;48.542;13.232;2022-12-29T09:24:10;7.55;;;4.05;;
62071;SDS011;48031;48.542;13.232;2022-12-29T09:28:11;8.77;;;4.60;;
62071;SDS011;48031;48.542;13.232;2022-12-29T09:32:13;6.85;;;4.50;;
62071;SDS011;48031;48.542;13.232;2022-12-29T09:36:19;8.40;;;4.90;;
62071;SDS011;48031;48.542;13.232;2022-12-29T09:40:28;7.70;;;4.75;;
62071;SDS011;48031;48.542;13.232;2022-12-29T09:49:06;7.15;;;4.25;;
62071;SDS011;48031;48.542;13.232;2022-12-29T09:53:20;7.20;;;4.68;;
62071;SDS011;48031;48.542;13.232;2022-12-29T10:05:53;9.38;;;5.72;;
62071;SDS011;48031;48.542;13.232;2022-12-29T10:10:12;11.05;;;5.75;;
62071;SDS011;48031;48.542;13.232;2022-12-29T10:27:42;9.45;;;5.20;;
62071;SDS011;48031;48.542;13.232;2022-12-29T10:32:02;6.67;;;4.43;;
62071;SDS011;48031;48.542;13.232;2022-12-29T10:36:21;9.35;;;4.90;;
62071;SDS011;48031;48.542;13.232;2022-12-29T10:40:44;6.68;;;4.30;;
62071;SDS011;48031;48.542;13.232;2022-12-29T10:44:51;8.38;;;4.90;;
62071;SDS011;48031;48.542;13.232;2022-12-29T10:48:53;7.75;;;4.57;;
62071;SDS011;48031;48.542;13.232;2022-12-29T10:52:55;5.05;;;3.45;;
62071;SDS011;48031;48.542;13.232;2022-12-29T10:57:03;6.97;;;4.33;;
62071;SDS011;48031;48.542;13.232;2022-12-29T11:01:09;6.03;;;3.90;;
62071;SDS011;48031;48.542;13.232;2022-12-29T11:05:23;5.82;;;3.92;;
62071;SDS011;48031;48.542;13.232;2022-12-29T11:09:27;6.65;;;4.00;;
62071;SDS011;48031;48.542;13.232;2022-12-29T11:13:47;5.03;;;3.30;;
62071;SDS011;48031;48.542;13.232;2022-12-29T11:17:52;3.20;;;2.88;;
62071;SDS011;48031;48.542;13.232;2022-12-29T11:22:31;3.70;;;2.60;;
62071;SDS011;48031;48.542;13.232;2022-12-29T11:26:27;3.58;;;2.80;;
62071;SDS011;48031;48.542;13.232;2022-12-29T11:30:34;2.92;;;2.30;;
62071;SDS011;48031;48.542;13.232;2022-12-29T11:34:36;3.55;;;3.13;;
62071;SDS011;48031;48.542;13.232;2022-12-29T11:38:39;3.92;;;3.20;;
62071;SDS011;48031;48.542;13.232;2022-12-29T11:47:05;4.28;;;3.50;;
62071;SDS011;48031;48.542;13.232;2022-12-29T11:51:20;4.45;;;3.50;;
62071;SDS011;48031;48.542;13.232;2022-12-29T11:55:28;4.85;;;3.53;;
62071;SDS011;48031;48.542;13.232;2022-12-29T11:59:36;3.53;;;2.95;;
62071;SDS011;48031;48.542;13.232;2022-12-29T12:03:44;3.55;;;3.20;;
62071;SDS011;48031;48.542;13.232;2022-12-29T12:07:52;3.40;;;3.00;;
62071;SDS011;48031;48.542;13.232;2022-12-29T12:12:01;4.30;;;3.08;;
62071;SDS011;48031;48.542;13.232;2022-12-29T12:16:08;4.15;;;3.60;;
62071;SDS011;48031;48.542;13.232;2022-12-29T12:20:19;3.97;;;2.70;;
62071;SDS011;48031;48.542;13.232;2022-12-29T12:24:35;8.07;;;4.72;;
62071;SDS011;48031;48.542;13.232;2022-12-29T12:28:58;8.73;;;5.00;;
62071;SDS011;48031;48.542;13.232;2022-12-29T12:33:27;9.63;;;5.22;;
62071;SDS011;48031;48.542;13.232;2022-12-29T12:51:20;5.25;;;4.13;;
62071;SDS011;48031;48.542;13.232;2022-12-29T13:00:03;5.35;;;3.33;;
62071;SDS011;48031;48.542;13.232;2022-12-29T13:04:26;4.30;;;3.17;;
62071;SDS011;48031;48.542;13.232;2022-12-29T13:26:18;8.43;;;4.68;;
62071;SDS011;48031;48.542;13.232;2022-12-29T13:39:27;6.55;;;4.75;;
62071;SDS011;48031;48.542;13.232;2022-12-29T13:43:36;6.43;;;5.85;;
62071;SDS011;48031;48.542;13.232;2022-12-29T13:48:03;7.07;;;6.30;;
62071;SDS011;48031;48.542;13.232;2022-12-29T13:52:13;5.15;;;3.70;;
62071;SDS011;48031;48.542;13.232;2022-12-29T13:56:49;7.10;;;6.50;;
62071;SDS011;48031;48.542;13.232;2022-12-29T14:05:04;6.38;;;5.65;;
62071;SDS011;48031;48.542;13.232;2022-12-29T14:13:46;5.75;;;4.40;;
62071;SDS011;48031;48.542;13.232;2022-12-29T14:22:05;4.55;;;3.42;;
62071;SDS011;48031;48.542;13.232;2022-12-29T14:30:36;6.00;;;4.50;;
62071;SDS011;48031;48.542;13.232;2022-12-29T14:34:55;7.35;;;4.55;;
62071;SDS011;48031;48.542;13.232;2022-12-29T14:39:02;6.70;;;4.70;;
62071;SDS011;48031;48.542;13.232;2022-12-29T14:43:11;7.95;;;5.45;;
62071;SDS011;48031;48.542;13.232;2022-12-29T14:47:26;6.20;;;4.22;;
62071;SDS011;48031;48.542;13.232;2022-12-29T14:51:34;6.82;;;4.22;;
62071;SDS011;48031;48.542;13.232;2022-12-29T14:55:44;7.53;;;4.20;;
62071;SDS011;48031;48.542;13.232;2022-12-29T14:59:48;11.80;;;5.47;;
62071;SDS011;48031;48.542;13.232;2022-12-29T15:03:57;10.00;;;5.53;;
62071;SDS011;48031;48.542;13.232;2022-12-29T15:08:04;17.85;;;9.10;;
62071;SDS011;48031;48.542;13.232;2022-12-29T15:16:39;11.75;;;7.65;;
62071;SDS011;48031;48.542;13.232;2022-12-29T15:20:41;10.77;;;6.13;;
62071;SDS011;48031;48.542;13.232;2022-12-29T15:24:44;11.68;;;6.38;;
62071;SDS011;48031;48.542;13.232;2022-12-29T15:28:46;14.38;;;7.57;;
62071;SDS011;48031;48.542;13.232;2022-12-29T15:32:49;16.95;;;8.90;;
62071;SDS011;48031;48.542;13.232;2022-12-29T15:36:51;18.88;;;10.23;;
62071;SDS011;48031;48.542;13.232;2022-12-29T15:40:53;11.15;;;7.07;;
62071;SDS011;48031;48.542;13.232;2022-12-29T15:44:58;11.13;;;6.93;;
62071;SDS011;48031;48.542;13.232;2022-12-29T15:49:12;12.88;;;6.60;;
62071;SDS011;48031;48.542;13.232;2022-12-29T15:53:19;10.50;;;5.68;;
62071;SDS011;48031;48.542;13.232;2022-12-29T15:57:28;20.02;;;10.23;;
62071;SDS011;48031;48.542;13.232;2022-12-29T16:01:34;12.88;;;8.52;;
62071;SDS011;48031;48.542;13.232;2022-12-29T16:05:38;11.15;;;7.28;;
62071;SDS011;48031;48.542;13.232;2022-12-29T16:09:42;12.93;;;7.47;;
62071;SDS011;48031;48.542;13.232;2022-12-29T16:13:45;12.50;;;7.43;;
62071;SDS011;48031;48.542;13.232;2022-12-29T16:17:50;10.48;;;6.32;;
62071;SDS011;48031;48.542;13.232;2022-12-29T16:21:54;16.85;;;8.30;;
62071;SDS011;48031;48.542;13.232;2022-12-29T16:25:56;11.05;;;6.30;;
62071;SDS011;48031;48.542;13.232;2022-12-29T16:30:02;10.77;;;6.57;;
62071;SDS011;48031;48.542;13.232;2022-12-29T16:34:12;16.55;;;7.93;;
62071;SDS011;48031;48.542;13.232;2022-12-29T16:38:34;13.60;;;7.32;;
62071;SDS011;48031;48.542;13.232;2022-12-29T16:42:45;13.13;;;6.80;;
62071;SDS011;48031;48.542;13.232;2022-12-29T16:55:15;10.10;;;6.18;;
62071;SDS011;48031;48.542;13.232;2022-12-29T17:03:21;9.60;;;5.68;;
62071;SDS011;48031;48.542;13.232;2022-12-29T17:07:24;11.13;;;6.13;;
62071;SDS011;48031;48.542;13.232;2022-12-29T17:11:33;9.20;;;5.90;;
62071;SDS011;48031;48.542;13.232;2022-12-29T17:16:01;10.00;;;5.97;;
62071;SDS011;48031;48.542;13.232;2022-12-29T17:24:17;8.85;;;5.55;;
62071;SDS011;48031;48.542;13.232;2022-12-29T17:28:21;12.90;;;6.30;;
62071;SDS011;48031;48.542;13.232;2022-12-29T17:32:26;9.60;;;5.63;;
62071;SDS011;48031;48.542;13.232;2022-12-29T17:36:28;10.30;;;5.65;;
62071;SDS011;48031;48.542;13.232;2022-12-29T17:40:31;9.38;;;5.82;;
62071;SDS011;48031;48.542;13.232;2022-12-29T17:44:33;11.13;;;6.10;;
62071;SDS011;48031;48.542;13.232;2022-12-29T17:48:36;10.88;;;5.78;;
62071;SDS011;48031;48.542;13.232;2022-12-29T17:52:38;10.30;;;5.22;;
62071;SDS011;48031;48.542;13.232;2022-12-29T17:56:40;11.43;;;5.97;;
62071;SDS011;48031;48.542;13.232;2022-12-29T18:00:42;10.30;;;5.40;;
62071;SDS011;48031;48.542;13.232;2022-12-29T18:04:44;10.07;;;6.38;;
62071;SDS011;48031;48.542;13.232;2022-12-29T18:08:45;12.15;;;6.82;;
62071;SDS011;48031;48.542;13.232;2022-12-29T18:12:48;8.77;;;5.22;;
62071;SDS011;48031;48.542;13.232;2022-12-29T18:16:52;11.23;;;6.78;;
62071;SDS011;48031;48.542;13.232;2022-12-29T18:20:54;11.40;;;6.53;;
62071;SDS011;48031;48.542;13.232;2022-12-29T18:24:59;9.57;;;6.43;;
62071;SDS011;48031;48.542;13.232;2022-12-29T18:29:03;11.10;;;6.55;;
62071;SDS011;48031;48.542;13.232;2022-12-29T18:33:05;13.52;;;6.47;;
62071;SDS011;48031;48.542;13.232;2022-12-29T18:37:07;9.25;;;5.93;;
62071;SDS011;48031;48.542;13.232;2022-12-29T18:41:15;11.70;;;6.22;;
62071;SDS011;48031;48.542;13.232;2022-12-29T18:45:23;21.75;;;10.05;;
62071;SDS011;48031;48.542;13.232;2022-12-29T18:49:25;12.93;;;7.70;;
62071;SDS011;48031;48.542;13.232;2022-12-29T18:53:27;11.63;;;7.00;;
62071;SDS011;48031;48.542;13.232;2022-12-29T18:57:29;10.55;;;6.00;;
62071;SDS011;48031;48.542;13.232;2022-12-29T19:01:31;10.57;;;5.63;;
62071;SDS011;48031;48.542;13.232;2022-12-29T19:05:37;11.35;;;6.82;;
62071;SDS011;48031;48.542;13.232;2022-12-29T19:09:40;12.35;;;6.60;;
62071;SDS011;48031;48.542;13.232;2022-12-29T19:13:42;11.43;;;6.80;;
62071;SDS011;48031;48.542;13.232;2022-12-29T19:17:44;11.07;;;6.47;;
62071;SDS011;48031;48.542;13.232;2022-12-29T19:21:46;11.25;;;6.72;;
62071;SDS011;48031;48.542;13.232;2022-12-29T19:25:48;14.02;;;7.20;;
62071;SDS011;48031;48.542;13.232;2022-12-29T19:29:50;15.20;;;7.32;;
62071;SDS011;48031;48.542;13.232;2022-12-29T19:33:51;14.27;;;6.60;;
62071;SDS011;48031;48.542;13.232;2022-12-29T19:37:54;11.77;;;6.93;;
62071;SDS011;48031;48.542;13.232;2022-12-29T19:41:56;11.88;;;7.15;;
62071;SDS011;48031;48.542;13.232;2022-12-29T19:46:09;11.13;;;6.63;;
62071;SDS011;48031;48.542;13.232;2022-12-29T19:50:15;13.95;;;7.15;;
62071;SDS011;48031;48.542;13.232;2022-12-29T19:54:17;11.27;;;6.97;;
62071;SDS011;48031;48.542;13.232;2022-12-29T19:58:19;12.63;;;7.30;;
62071;SDS011;48031;48.542;13.232;2022-12-29T20:02:22;13.80;;;6.97;;
62071;SDS011;48031;48.542;13.232;2022-12-29T20:06:25;11.82;;;7.10;;
62071;SDS011;48031;48.542;13.232;2022-12-29T20:10:27;11.70;;;6.70;;
62071;SDS011;48031;48.542;13.232;2022-12-29T20:14:30;14.45;;;6.93;;
62071;SDS011;48031;48.542;13.232;2022-12-29T20:18:33;14.15;;;7.28;;
62071;SDS011;48031;48.542;13.232;2022-12-29T20:22:38;11.73;;;7.07;;
62071;SDS011;48031;48.542;13.232;2022-12-29T20:26:40;12.55;;;7.20;;
62071;SDS011;48031;48.542;13.232;2022-12-29T20:30:42;12.25;;;6.82;;
62071;SDS011;48031;48.542;13.232;2022-12-29T20:34:45;11.40;;;6.80;;
62071;SDS011;48031;48.542;13.232;2022-12-29T20:38:48;11.63;;;6.95;;
62071;SDS011;48031;48.542;13.232;2022-12-29T20:42:50;11.40;;;6.65;;
62071;SDS011;48031;48.542;13.232;2022-12-29T20:46:52;13.52;;;7.43;;
62071;SDS011;48031;48.542;13.232;2022-12-29T20:50:54;12.15;;;6.85;;
62071;SDS011;48031;48.542;13.232;2022-12-29T20:54:59;13.23;;;7.38;;
62071;SDS011;48031;48.542;13.232;2022-12-29T20:59:02;12.50;;;6.90;;
62071;SDS011;48031;48.542;13.232;2022-12-29T21:03:24;11.55;;;6.63;;
62071;SDS011;48031;48.542;13.232;2022-12-29T21:07:26;12.82;;;7.00;;
62071;SDS011;48031;48.542;13.232;2022-12-29T21:11:28;11.85;;;6.97;;
62071;SDS011;48031;48.542;13.232;2022-12-29T21:15:30;12.80;;;6.55;;
62071;SDS011;48031;48.542;13.232;2022-12-29T21:19:32;10.68;;;6.40;;
62071;SDS011;48031;48.542;13.232;2022-12-29T21:23:36;10.55;;;6.18;;
62071;SDS011;48031;48.542;13.232;2022-12-29T21:27:40;12.20;;;6.53;;
62071;SDS011;48031;48.542;13.232;2022-12-29T21:31:45;11.65;;;6.82;;
62071;SDS011;48031;48.542;13.232;2022-12-29T21:35:47;12.43;;;6.68;;
62071;SDS011;48031;48.542;13.232;2022-12-29T21:39:49;10.18;;;6.55;;
62071;SDS011;48031;48.542;13.232;2022-12-29T21:43:51;13.00;;;7.03;;
62071;SDS011;48031;48.542;13.232;2022-12-29T21:48:11;11.95;;;6.30;;
62071;SDS011;48031;48.542;13.232;2022-12-29T21:52:24;10.20;;;6.30;;
62071;SDS011;48031;48.542;13.232;2022-12-29T21:56:25;11.10;;;6.25;;
62071;SDS011;48031;48.542;13.232;2022-12-29T22:00:27;11.32;;;6.22;;
62071;SDS011;48031;48.542;13.232;2022-12-29T22:04:47;11.82;;;6.60;;
62071;SDS011;48031;48.542;13.232;2022-12-29T22:09:08;7.22;;;5.13;;
62071;SDS011;48031;48.542;13.232;2022-12-29T22:13:32;8.73;;;4.65;;
62071;SDS011;48031;48.542;13.232;2022-12-29T22:17:34;9.82;;;5.95;;
62071;SDS011;48031;48.542;13.232;2022-12-29T22:21:38;12.73;;;6.38;;
62071;SDS011;48031;48.542;13.232;2022-12-29T22:25:40;11.52;;;6.32;;
62071;SDS011;48031;48.542;13.232;2022-12-29T22:29:42;10.27;;;5.55;;
62071;SDS011;48031;48.542;13.232;2022-12-29T22:33:44;10.98;;;6.65;;
62071;SDS011;48031;48.542;13.232;2022-12-29T22:37:46;9.40;;;6.10;;
62071;SDS011;48031;48.542;13.232;2022-12-29T22:41:47;9.85;;;6.13;;
62071;SDS011;48031;48.542;13.232;2022-12-29T22:45:49;9.80;;;6.32;;
62071;SDS011;48031;48.542;13.232;2022-12-29T22:49:51;10.32;;;5.50;;
62071;SDS011;48031;48.542;13.232;2022-12-29T22:53:53;10.27;;;6.43;;
62071;SDS011;48031;48.542;13.232;2022-12-29T22:57:55;9.45;;;5.88;;
62071;SDS011;48031;48.542;13.232;2022-12-29T23:01:57;8.05;;;5.13;;
62071;SDS011;48031;48.542;13.232;2022-12-29T23:06:00;9.18;;;5.22;;
62071;SDS011;48031;48.542;13.232;2022-12-29T23:10:03;7.95;;;5.10;;
62071;SDS011;48031;48.542;13.232;2022-12-29T23:14:05;8.88;;;5.78;;
62071;SDS011;48031;48.542;13.232;2022-12-29T23:18:07;6.53;;;4.10;;
62071;SDS011;48031;48.542;13.232;2022-12-29T23:22:09;7.45;;;4.93;;
62071;SDS011;48031;48.542;13.232;2022-12-29T23:26:11;10.68;;;6.80;;
62071;SDS011;48031;48.542;13.232;2022-12-29T23:30:13;11.52;;;6.55;;
62071;SDS011;48031;48.542;13.232;2022-12-29T23:34:15;10.00;;;5.47;;
62071;SDS011;48031;48.542;13.232;2022-12-29T23:38:17;11.57;;;6.72;;
62071;SDS011;48031;48.542;13.232;2022-12-29T23:42:20;12.35;;;6.95;;
62071;SDS011;48031;48.542;13.232;2022-12-29T23:46:23;11.63;;;6.35;;
62071;SDS011;48031;48.542;13.232;2022-12-29T23:50:26;10.80;;;6.00;;
62071;SDS011;48031;48.542;13.232;2022-12-29T23:54:28;8.82;;;5.45;;
62071;SDS011;48031;48.542;13.232;2022-12-29T23:58:30;8.60;;;4.63;;
